createdAt,value
2023-04-09T00:03:50.089Z,10.70
2023-04-09T00:09:00.251Z,10.60
2023-04-09T00:13:59.302Z,10.60
2023-04-09T00:19:09.293Z,10.40
2023-04-09T00:24:09.094Z,10.40
2023-04-09T00:29:18.106Z,10.30
2023-04-09T00:34:27.405Z,10.10
2023-04-09T00:39:37.670Z,10.10
2023-04-09T00:44:36.079Z,10.00
2023-04-09T00:49:37.899Z,10.00
2023-04-09T00:54:46.411Z,10.00
2023-04-09T00:59:58.704Z,9.90
2023-04-09T01:04:56.878Z,9.80
2023-04-09T01:10:06.496Z,9.70
2023-04-09T01:15:15.388Z,9.60
2023-04-09T01:20:25.211Z,9.40
2023-04-09T01:25:26.449Z,9.30
2023-04-09T01:30:35.531Z,9.20
2023-04-09T01:35:45.353Z,9.10
2023-04-09T01:40:55.318Z,9.00
2023-04-09T01:46:05.011Z,9.00
2023-04-09T01:51:13.917Z,9.00
2023-04-09T01:56:22.132Z,8.80
2023-04-09T02:01:31.136Z,8.80
2023-04-09T02:06:40.206Z,8.80
2023-04-09T02:11:49.399Z,8.90
2023-04-09T02:16:59.173Z,8.80
2023-04-09T02:22:07.777Z,8.80
2023-04-09T02:27:17.520Z,8.90
2023-04-09T02:32:27.589Z,8.80
2023-04-09T02:37:29.061Z,8.80
2023-04-09T02:42:28.812Z,8.90
2023-04-09T02:47:31.226Z,8.90
2023-04-09T02:52:40.948Z,8.90
2023-04-09T02:57:49.523Z,8.90
2023-04-09T03:02:58.813Z,8.90
2023-04-09T03:08:08.146Z,8.90
2023-04-09T03:13:18.077Z,9.00
2023-04-09T03:18:26.221Z,9.10
2023-04-09T03:23:35.934Z,9.20
2023-04-09T03:28:46.126Z,9.20
2023-04-09T03:33:45.947Z,9.30
2023-04-09T03:38:55.613Z,9.40
2023-04-09T03:44:05.491Z,9.40
2023-04-09T03:49:14.733Z,9.60
2023-04-09T03:54:23.691Z,9.60
2023-04-09T03:59:34.405Z,9.70
2023-04-09T04:04:34.026Z,9.70
2023-04-09T04:09:42.502Z,9.80
2023-04-09T04:14:51.397Z,9.80
2023-04-09T04:20:01.557Z,9.80
2023-04-09T04:25:00.979Z,9.90
2023-04-09T04:30:10.573Z,10.00
2023-04-09T04:35:20.427Z,10.20
2023-04-09T04:40:28.675Z,10.30
2023-04-09T04:45:38.240Z,10.30
2023-04-09T04:50:47.379Z,10.30
2023-04-09T04:55:57.573Z,10.30
2023-04-09T05:00:56.036Z,10.40
2023-04-09T05:06:08.474Z,10.60
2023-04-09T05:11:10.440Z,10.70
2023-04-09T05:16:10.633Z,10.90
2023-04-09T05:21:10.180Z,11.10
2023-04-09T05:26:19.351Z,11.20
2023-04-09T05:31:27.765Z,11.30
2023-04-09T05:36:37.994Z,11.30
2023-04-09T05:41:36.390Z,11.50
2023-04-09T05:46:46.268Z,11.60
2023-04-09T05:51:56.333Z,11.70
2023-04-09T05:56:54.866Z,11.70
2023-04-09T06:02:03.467Z,11.90
2023-04-09T06:07:13.382Z,12.10
2023-04-09T06:12:23.244Z,12.20
2023-04-09T06:17:33.709Z,12.40
2023-04-09T06:22:32.247Z,12.50
2023-04-09T06:27:42.552Z,12.60
2023-04-09T06:32:53.147Z,12.60
2023-04-09T06:37:50.370Z,12.70
2023-04-09T06:42:59.017Z,13.00
2023-04-09T06:48:09.737Z,13.10
2023-04-09T06:53:08.374Z,13.40
2023-04-09T06:58:18.807Z,13.70
2023-04-09T07:03:18.461Z,13.90
2023-04-09T07:08:28.358Z,13.90
2023-04-09T07:18:37.655Z,14.00
2023-04-09T07:23:37.728Z,14.30
2023-04-09T07:28:37.014Z,14.50
2023-04-09T07:33:45.571Z,14.90
2023-04-09T07:38:54.643Z,15.20
2023-04-09T07:44:03.433Z,15.40
2023-04-09T07:49:13.641Z,15.70
2023-04-09T07:54:13.762Z,16.10
2023-04-09T07:59:14.208Z,16.30
2023-04-09T08:04:14.352Z,16.50
2023-04-09T08:09:15.331Z,16.70
2023-04-09T08:14:14.466Z,16.90
2023-04-09T08:19:24.576Z,17.20
2023-04-09T08:24:23.266Z,17.50
2023-04-09T08:29:33.497Z,17.70
2023-04-09T08:34:33.260Z,17.80
2023-04-09T08:39:42.716Z,18.30
2023-04-09T08:44:51.194Z,18.70
2023-04-09T08:54:59.928Z,19.20
2023-04-09T09:00:09.290Z,19.20
2023-04-09T09:05:18.626Z,19.00
2023-04-09T09:10:27.555Z,19.10
2023-04-09T09:15:36.346Z,19.40
2023-04-09T09:20:46.820Z,19.70
2023-04-09T09:41:15.592Z,19.60
2023-04-09T09:46:14.164Z,19.50
2023-04-09T09:51:22.923Z,19.20
2023-04-09T10:06:44.466Z,20.00
2023-04-09T10:11:53.168Z,20.40
2023-04-09T10:17:02.412Z,20.60
2023-04-09T10:22:12.774Z,20.80
2023-04-09T10:27:12.551Z,20.60
2023-04-09T10:32:20.953Z,20.50
2023-04-09T10:37:29.712Z,20.50
2023-04-09T10:42:39.740Z,20.30
2023-04-09T10:47:40.246Z,20.50
2023-04-09T10:52:40.722Z,20.50
2023-04-09T10:57:40.395Z,20.40
2023-04-09T11:02:49.119Z,20.60
2023-04-09T11:07:59.139Z,20.40
2023-04-09T11:12:57.975Z,20.20
2023-04-09T11:18:07.809Z,20.00
2023-04-09T11:23:16.912Z,20.40
2023-04-09T11:28:26.785Z,20.90
2023-04-09T11:33:35.791Z,21.00
2023-04-09T11:38:45.097Z,21.10
2023-04-09T11:43:53.677Z,21.20
2023-04-09T11:49:03.372Z,21.20
2023-04-09T11:54:13.409Z,21.20
2023-04-09T11:59:13.297Z,21.20
2023-04-09T12:04:22.591Z,21.30
2023-04-09T12:09:32.640Z,21.60
2023-04-09T12:14:32.474Z,21.70
2023-04-09T12:19:40.947Z,21.70
2023-04-09T12:24:49.569Z,21.50
2023-04-09T12:29:58.626Z,21.20
2023-04-09T12:35:10.038Z,20.70
2023-04-09T12:40:08.453Z,20.50
2023-04-09T12:45:18.176Z,20.20
2023-04-09T12:50:26.607Z,20.20
2023-04-09T12:55:37.128Z,20.10
2023-04-09T13:00:36.952Z,20.20
2023-04-09T13:05:47.280Z,20.20
2023-04-09T13:10:45.909Z,20.10
2023-04-09T13:15:54.834Z,20.10
2023-04-09T13:21:07.288Z,20.00
2023-04-09T13:26:06.771Z,20.00
2023-04-09T13:31:22.199Z,20.10
2023-04-09T13:36:21.550Z,20.30
2023-04-09T13:41:31.927Z,20.40
2023-04-09T13:46:41.151Z,20.50
2023-04-09T13:51:39.303Z,20.50
2023-04-09T13:56:49.501Z,20.30
2023-04-09T14:01:48.997Z,19.90
2023-04-09T14:06:58.723Z,19.70
2023-04-09T14:12:09.545Z,19.60
2023-04-09T14:17:09.789Z,19.40
2023-04-09T14:37:36.730Z,18.70
2023-04-09T14:42:36.762Z,18.60
2023-04-09T14:57:37.559Z,18.40
2023-04-09T15:28:07.037Z,18.50
2023-04-09T15:33:17.169Z,18.30
2023-04-09T15:38:16.013Z,18.20
2023-04-09T15:53:43.855Z,17.90
2023-04-09T15:58:54.724Z,17.80
2023-04-09T16:03:53.568Z,17.70
2023-04-09T16:09:04.393Z,17.70
2023-04-09T16:19:14.045Z,17.60
2023-04-09T16:24:24.050Z,17.40
2023-04-09T16:29:23.200Z,17.20
2023-04-09T16:34:31.580Z,17.10
2023-04-09T16:39:40.445Z,16.90
2023-04-09T16:44:49.748Z,16.70
2023-04-09T16:49:58.658Z,16.60
2023-04-09T16:55:07.208Z,16.40
2023-04-09T17:00:09.243Z,16.20
2023-04-09T17:05:11.232Z,15.80
2023-04-09T17:10:23.519Z,15.60
2023-04-09T17:15:23.341Z,15.40
2023-04-09T17:20:32.710Z,15.40
2023-04-09T17:25:43.255Z,15.30
2023-04-09T17:30:38.551Z,15.20
2023-04-09T17:35:50.139Z,15.20
2023-04-09T17:40:51.165Z,15.10
2023-04-09T17:45:52.942Z,15.10
2023-04-09T17:50:53.798Z,15.00
2023-04-09T17:55:56.172Z,15.00
2023-04-09T18:00:53.224Z,14.90
2023-04-09T18:06:02.834Z,14.80
2023-04-09T18:11:13.475Z,14.70
2023-04-09T18:16:20.868Z,14.70
2023-04-09T18:21:30.280Z,14.50
2023-04-09T18:26:39.005Z,14.40
2023-04-09T18:31:48.338Z,14.40
2023-04-09T18:36:57.927Z,14.30
2023-04-09T18:42:06.748Z,14.20
2023-04-09T18:47:16.000Z,14.20
2023-04-09T18:52:25.689Z,14.10
2023-04-09T18:57:34.345Z,14.10
2023-04-09T19:02:44.240Z,14.00
2023-04-09T19:07:52.788Z,14.00
2023-04-09T19:13:01.739Z,13.90
2023-04-09T19:18:10.442Z,13.80
2023-04-09T19:23:19.432Z,13.70
2023-04-09T19:28:28.181Z,13.70
2023-04-09T19:33:37.223Z,13.60
2023-04-09T19:38:45.454Z,13.50
2023-04-09T19:43:54.785Z,13.50
2023-04-09T19:49:03.698Z,13.50
2023-04-09T19:54:13.142Z,13.40
2023-04-09T19:59:21.851Z,13.40
2023-04-09T20:04:31.098Z,13.30
2023-04-09T20:09:39.589Z,13.30
2023-04-09T20:14:48.750Z,13.20
2023-04-09T20:19:57.298Z,13.10
2023-04-09T20:25:06.211Z,13.00
2023-04-09T20:30:14.715Z,13.00
2023-04-09T20:35:23.597Z,12.90
2023-04-09T20:40:32.763Z,12.90
2023-04-09T20:45:41.955Z,12.80
2023-04-09T20:50:50.471Z,12.60
2023-04-09T20:55:59.774Z,12.50
2023-04-09T21:01:09.179Z,12.40
2023-04-09T21:06:18.480Z,12.30
2023-04-09T21:11:27.364Z,12.20
2023-04-09T21:16:36.315Z,12.20
2023-04-09T21:21:44.835Z,12.10
2023-04-09T21:26:53.957Z,11.90
2023-04-09T21:32:08.852Z,11.80
2023-04-09T21:37:07.522Z,11.60
2023-04-09T21:42:15.941Z,11.50
2023-04-09T21:47:25.020Z,11.40
2023-04-09T21:52:33.561Z,11.20
2023-04-09T21:57:42.479Z,11.10
2023-04-09T22:02:52.148Z,11.00
2023-04-09T22:08:01.376Z,10.90
2023-04-09T22:13:10.068Z,10.70
2023-04-09T22:18:19.062Z,10.60
2023-04-09T22:23:27.526Z,10.40
2023-04-09T22:28:36.440Z,10.30
2023-04-09T22:33:44.870Z,10.20
2023-04-09T22:38:54.016Z,10.00
2023-04-09T22:44:02.464Z,9.80
2023-04-09T22:49:11.903Z,9.70
2023-04-09T22:54:20.215Z,9.60
2023-04-09T23:04:37.372Z,9.50
2023-04-09T23:09:49.045Z,9.40
2023-04-09T23:14:49.553Z,9.30
2023-04-09T23:19:57.018Z,9.20
2023-04-09T23:25:05.497Z,9.10
2023-04-09T23:30:14.491Z,9.00
2023-04-09T23:35:23.631Z,9.00
2023-04-09T23:40:32.193Z,8.90
2023-04-09T23:45:41.108Z,8.80
2023-04-09T23:50:50.321Z,8.70
2023-04-09T23:55:58.939Z,8.60
